South Corinth, Vermont
Current Conditions -  °F | °C
As of 7:51 PM on Monday 24 Nov 2014 (Local Time) from KMPV Reporting Station
Light Rain Light Rain  
Wind Chill: 58°   Ceiling: Unl
Heat Index: 58°   Visibility: 10mi
Dew Point: 52°   Wind: 12mph
Humidity: 81%   Direction: 180°S
Pressure: 29.49"   Gusts: 26mph
Location:  44.0089°N, 72.1564°W
Report Text: KMPV 250051Z AUTO 18010G23KT 10SM -RA FEW021 FEW080 SCT090 14/11 A2949 RMK AO2 RAB48 SLP990 P0000 T01440111
Loading
Personal Weather Stations






























Interactive Weather Map New forecast layout! Learn more

10-Day Weather Forecast

Advertisements
Track Severe Weather on mobile